D/T METAR WX W/DIR W/SPE G/SPE TEMP DEWP
15/01/19 21:50 EGNV 152150Z 21015KT 9999 FEW021 SCT030 BKN040 09/05 Q1006 SSW (210°) 17.3mph 9°C 5°C
15/01/19 21:20 EGNV 152120Z 22016KT 9999 FEW022 SCT040 09/05 Q1007 SW (220°) 18.4mph 9°C 5°C
15/01/19 20:50 EGNV 152050Z 22014KT 9999 FEW023 SCT040 09/05 Q1007 SW (220°) 16.1mph 9°C 5°C
15/01/19 20:20 EGNV 152020Z 22010KT 9999 FEW026 SCT036 08/04 Q1007 SW (220°) 11.5mph 8°C 4°C
15/01/19 19:50 EGNV 151950Z 22010KT 9999 FEW025 SCT037 08/04 Q1008 SW (220°) 11.5mph 8°C 4°C
15/01/19 18:50 EGNV 151850Z 21011KT 180V250 9999 FEW024 08/04 Q1009 SSW (210°) 12.7mph 8°C 4°C
15/01/19 18:20 EGNV 151820Z 23018KT 9999 FEW031 08/04 Q1009 SW (230°) 20.7mph 8°C 4°C
15/01/19 17:20 EGNV 151720Z 23006KT 150V280 9999 FEW027 08/04 Q1009 SW (230°) 6.9mph 8°C 4°C
15/01/19 16:50 EGNV 151650Z 24015KT 9999 FEW026 08/03 Q1010 WSW (240°) 17.3mph 8°C 3°C
15/01/19 16:20 EGNV 151620Z 24015KT 9999 FEW020 09/03 Q1010 WSW (240°) 17.3mph 9°C 3°C
15/01/19 15:50 EGNV 151550Z 24019KT 9999 FEW020 09/03 Q1010 WSW (240°) 21.9mph 9°C 3°C
15/01/19 15:20 EGNV 151520Z 25017KT 9999 FEW012 09/03 Q1010 WSW (250°) 19.6mph 9°C 3°C
15/01/19 14:50 EGNV 151450Z 24014KT 9999 FEW032 09/03 Q1010 WSW (240°) 16.1mph 9°C 3°C
15/01/19 14:20 EGNV 151420Z 24014KT 9999 FEW027 SCT044 10/03 Q1010 WSW (240°) 16.1mph 10°C 3°C
15/01/19 13:20 EGNV 151320Z 24013KT 9999 FEW025 SCT045 10/04 Q1011 WSW (240°) 15.0mph 10°C 4°C
15/01/19 12:50 EGNV 151250Z 25019KT 9999 FEW020 10/04 Q1011 WSW (250°) 21.9mph 10°C 4°C
15/01/19 11:50 EGNV 151150Z 23011KT 9999 FEW020 11/05 Q1012 SW (230°) 12.7mph 11°C 5°C
15/01/19 11:20 EGNV 151120Z 24013KT 9999 FEW020 11/05 Q1013 WSW (240°) 15.0mph 11°C 5°C
15/01/19 10:50 EGNV 151050Z 21007KT 9999 FEW020 09/05 Q1013 SSW (210°) 8.1mph 9°C 5°C
15/01/19 10:20 EGNV 151020Z 24010KT 9999 FEW020 09/05 Q1013 WSW (240°) 11.5mph 9°C 5°C
15/01/19 09:50 EGNV 150950Z 22010KT 170V250 9999 FEW020 09/05 Q1013 SW (220°) 11.5mph 9°C 5°C
15/01/19 09:20 EGNV 150920Z 22011KT 9999 FEW020 08/05 Q1013 SW (220°) 12.7mph 8°C 5°C
15/01/19 08:20 EGNV 150820Z 22010KT 9999 FEW012 08/05 Q1013 SW (220°) 11.5mph 8°C 5°C
15/01/19 07:50 EGNV 150750Z 22013KT CAVOK 09/05 Q1013 SW (220°) 15.0mph 9°C 5°C
15/01/19 06:50 EGNV 150650Z 24010KT CAVOK 08/05 Q1013 WSW (240°) 11.5mph 8°C 5°C
15/01/19 05:50 EGNV 150550Z 25009KT CAVOK 08/04 Q1013 WSW (250°) 10.4mph 8°C 4°C
14/01/19 21:20 EGNV 142120Z 22007KT 9999 BKN023 06/03 Q1018 SW (220°) 8.1mph 6°C 3°C
14/01/19 20:50 EGNV 142050Z 22007KT 9999 SCT026 BKN028 05/03 Q1018 SW (220°) 8.1mph 5°C 3°C
14/01/19 20:20 EGNV 142020Z 21008KT 9999 BKN030 05/03 Q1018 SSW (210°) 9.2mph 5°C 3°C
14/01/19 19:20 EGNV 141920Z 22006KT 9999 FEW035 SCT040 04/02 Q1019 SW (220°) 6.9mph 4°C 2°C
14/01/19 18:50 EGNV 141850Z 23007KT 9999 FEW030 04/01 Q1019 SW (230°) 8.1mph 4°C 1°C
14/01/19 18:20 EGNV 141820Z 24009KT 9999 FEW025 04/02 Q1018 WSW (240°) 10.4mph 4°C 2°C
14/01/19 17:50 EGNV 141750Z 24008KT 9999 FEW025 04/02 Q1019 WSW (240°) 9.2mph 4°C 2°C
14/01/19 16:50 EGNV 141650Z 26005KT 9999 FEW025 06/03 Q1019 W (260°) 5.8mph 6°C 3°C
14/01/19 16:20 EGNV 141620Z 26009KT 9999 FEW025 SCT036 06/03 Q1019 W (260°) 10.4mph 6°C 3°C
14/01/19 15:50 EGNV 141550Z 17003KT 9999 SCT027 05/03 Q1019 S (170°) 3.5mph 5°C 3°C
14/01/19 15:20 EGNV 141520Z 16003KT 9999 FEW030 SCT042 05/03 Q1019 SSE (160°) 3.5mph 5°C 3°C
14/01/19 14:50 EGNV 141450Z 17004KT 9999 SCT035 05/03 Q1019 S (170°) 4.6mph 5°C 3°C
14/01/19 14:20 EGNV 141420Z VRB02KT 9999 FEW025 SCT040 06/03 Q1019 N (0°) 2.3mph 6°C 3°C
14/01/19 13:50 EGNV 141350Z VRB03KT 9999 FEW025 SCT036 06/03 Q1019 N (0°) 3.5mph 6°C 3°C
14/01/19 13:20 EGNV 141320Z VRB02KT 9999 FEW032 SCT042 06/03 Q1019 N (0°) 2.3mph 6°C 3°C
14/01/19 12:50 EGNV 141250Z VRB02KT 9999 FEW015 SCT044 06/03 Q1020 N (0°) 2.3mph 6°C 3°C
14/01/19 12:20 EGNV 141220Z VRB02KT 9999 FEW015 06/02 Q1020 N (0°) 2.3mph 6°C 2°C
14/01/19 11:50 EGNV 141150Z VRB03KT 9999 FEW013 05/02 Q1020 N (0°) 3.5mph 5°C 2°C
14/01/19 11:20 EGNV 141120Z VRB04KT 9999 FEW013 SCT027 05/03 Q1020 N (0°) 4.6mph 5°C 3°C
14/01/19 10:50 EGNV 141050Z 36004KT 9999 FEW013 SCT033 05/03 Q1020 N (360°) 4.6mph 5°C 3°C
14/01/19 10:20 EGNV 141020Z VRB02KT 9999 FEW008 SCT020 05/03 Q1019 N (0°) 2.3mph 5°C 3°C
14/01/19 09:50 EGNV 140950Z VRB02KT 9999 VCSH FEW012 SCT025 05/03 Q1019 VCSH N (0°) 2.3mph 5°C 3°C
14/01/19 09:20 EGNV 140920Z VRB01KT 9999 FEW014 BKN026 05/03 Q1019 N (0°) 1.2mph 5°C 3°C
14/01/19 08:50 EGNV 140850Z VRB01KT 9999 FEW017 SCT035 05/03 Q1018 N (0°) 1.2mph 5°C 3°C
14/01/19 08:20 EGNV 140820Z 00000KT 9999 FEW017 SCT019 05/03 Q1018 N (0°) 5°C 3°C
14/01/19 07:50 EGNV 140750Z 00000KT 9999 FEW021 SCT023 04/02 Q1017 N (0°) 4°C 2°C
14/01/19 07:20 EGNV 140720Z 00000KT 9999 FEW019 BKN021 04/02 Q1017 N (0°) 4°C 2°C
14/01/19 06:50 EGNV 140650Z 00000KT 9999 FEW021 SCT023 04/02 Q1017 N (0°) 4°C 2°C
14/01/19 05:50 EGNV 140550Z 35008KT 9999 FEW038 04/02 Q1016 N (350°) 9.2mph 4°C 2°C
13/01/19 21:20 EGNV 132120Z 29014KT 9999 FEW035 07/02 Q1009 WNW (290°) 16.1mph 7°C 2°C
13/01/19 20:50 EGNV 132050Z 29015KT 9999 FEW035 07/02 Q1008 WNW (290°) 17.3mph 7°C 2°C
13/01/19 20:20 EGNV 132020Z 29017KT 9999 FEW035 07/02 Q1008 WNW (290°) 19.6mph 7°C 2°C
13/01/19 19:50 EGNV 131950Z 29016KT 9999 SCT035 07/01 Q1008 WNW (290°) 18.4mph 7°C 1°C
13/01/19 19:20 EGNV 131920Z 29020G30KT 9999 SCT030 07/02 Q1008 WNW (290°) 23.0mph 34.5mph 7°C 2°C
13/01/19 18:50 EGNV 131850Z 28016KT 9999 SCT035 07/02 Q1007 W (280°) 18.4mph 7°C 2°C
13/01/19 17:50 EGNV 131750Z 28011KT 250V310 9999 FEW020 SCT035 08/02 Q1007 W (280°) 12.7mph 8°C 2°C
13/01/19 17:20 EGNV 131720Z 28012KT 9999 SCT035 08/02 Q1007 W (280°) 13.8mph 8°C 2°C
13/01/19 16:50 EGNV 131650Z 28015KT 9999 SCT025 08/02 Q1007 W (280°) 17.3mph 8°C 2°C
13/01/19 16:20 EGNV 131620Z 29016G26KT 9999 FEW025 08/02 Q1007 WNW (290°) 18.4mph 29.9mph 8°C 2°C
13/01/19 15:20 EGNV 131520Z 29015G25KT 9999 FEW025 SCT040 09/03 Q1006 WNW (290°) 17.3mph 28.8mph 9°C 3°C
13/01/19 14:50 EGNV 131450Z 29018KT 9999 FEW025 10/03 Q1005 WNW (290°) 20.7mph 10°C 3°C
13/01/19 14:20 EGNV 131420Z 29022G32KT 9999 FEW025 10/03 Q1006 WNW (290°) 25.3mph 36.8mph 10°C 3°C
13/01/19 13:20 EGNV 131320Z 29018G28KT 260V320 9999 FEW025 SCT040 11/04 Q1006 WNW (290°) 20.7mph 32.2mph 11°C 4°C
13/01/19 12:50 EGNV 131250Z 29019G29KT 260V320 9999 FEW020 SCT042 11/05 Q1006 WNW (290°) 21.9mph 33.4mph 11°C 5°C
13/01/19 12:20 EGNV 131220Z 29020G37KT 9999 FEW025 SCT040 11/05 Q1006 WNW (290°) 23.0mph 42.6mph 11°C 5°C
13/01/19 11:50 EGNV 131150Z 29021G36KT 9999 SCT025 11/05 Q1005 WNW (290°) 24.2mph 41.4mph 11°C 5°C
13/01/19 11:20 EGNV 131120Z 29025G40KT 260V320 9999 FEW025 11/06 Q1005 WNW (290°) 28.8mph 46.0mph 11°C 6°C
13/01/19 10:50 EGNV 131050Z 28020G31KT 9999 FEW025 11/06 Q1005 W (280°) 23.0mph 35.7mph 11°C 6°C
13/01/19 10:20 EGNV 131020Z 27016G28KT 9999 FEW020 11/06 Q1005 W (270°) 18.4mph 32.2mph 11°C 6°C
13/01/19 09:50 EGNV 130950Z 26014KT 220V290 9999 FEW015 SCT025 11/07 Q1006 W (260°) 16.1mph 11°C 7°C
13/01/19 09:20 EGNV 130920Z 26015KT 9999 FEW015 BKN022 11/07 Q1007 W (260°) 17.3mph 11°C 7°C
13/01/19 08:50 EGNV 130850Z 26017KT 9999 FEW015 SCT024 11/07 Q1007 W (260°) 19.6mph 11°C 7°C
13/01/19 08:20 EGNV 130820Z 26016KT 240V300 9999 FEW015 SCT022 10/07 Q1007 W (260°) 18.4mph 10°C 7°C
13/01/19 07:20 EGNV 130720Z 26017KT 9999 BKN020 10/07 Q1008 W (260°) 19.6mph 10°C 7°C
13/01/19 06:50 EGNV 130650Z 26019KT 9999 FEW021 BKN029 10/07 Q1008 W (260°) 21.9mph 10°C 7°C
13/01/19 06:20 EGNV 130620Z 27021KT 9999 FEW021 SCT027 10/06 Q1008 W (270°) 24.2mph 10°C 6°C
13/01/19 05:50 EGNV 130550Z 26018KT 9999 FEW021 10/06 Q1008 W (260°) 20.7mph 10°C 6°C
12/01/19 21:50 EGNV 122150Z 27017KT 9999 FEW020 11/07 Q1013 W (270°) 19.6mph 11°C 7°C
12/01/19 21:20 EGNV 122120Z 27014G24KT 9999 FEW020 11/07 Q1013 W (270°) 16.1mph 27.6mph 11°C 7°C
12/01/19 20:50 EGNV 122050Z 27013KT 9999 FEW022 11/08 Q1013 W (270°) 15.0mph 11°C 8°C
12/01/19 20:20 EGNV 122020Z 27009KT 240V300 9999 SCT021 11/07 Q1013 W (270°) 10.4mph 11°C 7°C
12/01/19 19:50 EGNV 121950Z 26010KT 9999 FEW022 11/07 Q1013 W (260°) 11.5mph 11°C 7°C
12/01/19 19:20 EGNV 121920Z 27010KT 9999 SCT024 10/07 Q1013 W (270°) 11.5mph 10°C 7°C
12/01/19 18:50 EGNV 121850Z 25005KT 210V280 9999 SCT023 10/07 Q1013 WSW (250°) 5.8mph 10°C 7°C
12/01/19 17:50 EGNV 121750Z 26009KT 9999 FEW017 09/06 Q1013 W (260°) 10.4mph 9°C 6°C
12/01/19 17:20 EGNV 121720Z 26009KT 230V290 9999 FEW015 SCT045 09/06 Q1014 W (260°) 10.4mph 9°C 6°C
12/01/19 16:50 EGNV 121650Z 26010KT 9999 FEW018 SCT040 09/05 Q1014 W (260°) 11.5mph 9°C 5°C
12/01/19 16:20 EGNV 121620Z 25012KT 9999 FEW018 SCT048 09/05 Q1014 WSW (250°) 13.8mph 9°C 5°C
12/01/19 15:50 EGNV 121550Z 26011KT 9999 FEW015 SCT045 09/05 Q1014 W (260°) 12.7mph 9°C 5°C
12/01/19 15:20 EGNV 121520Z 25012KT 9999 FEW015 SCT024 09/05 Q1014 WSW (250°) 13.8mph 9°C 5°C
12/01/19 14:20 EGNV 121420Z 27013G23KT 250V310 9999 FEW015 SCT026 09/05 Q1015 W (270°) 15.0mph 26.5mph 9°C 5°C
12/01/19 13:50 EGNV 121350Z 27017KT 9999 FEW015 09/05 Q1015 W (270°) 19.6mph 9°C 5°C
12/01/19 13:20 EGNV 121320Z 27019G31KT 9999 FEW015 09/05 Q1015 W (270°) 21.9mph 35.7mph 9°C 5°C
12/01/19 12:50 EGNV 121250Z 27018KT 9999 FEW015 09/05 Q1016 W (270°) 20.7mph 9°C 5°C
12/01/19 12:20 EGNV 121220Z 27016KT 9999 FEW015 09/05 Q1016 W (270°) 18.4mph 9°C 5°C
12/01/19 11:50 EGNV 121150Z 26014KT 9999 FEW015 08/05 Q1016 W (260°) 16.1mph 8°C 5°C
12/01/19 11:20 EGNV 121120Z 26010KT 9999 FEW015 08/05 Q1017 W (260°) 11.5mph 8°C 5°C
12/01/19 10:50 EGNV 121050Z 26012KT 9999 FEW015 08/05 Q1017 W (260°) 13.8mph 8°C 5°C
12/01/19 09:50 EGNV 120950Z 25013KT 9999 FEW015 08/05 Q1017 WSW (250°) 15.0mph 8°C 5°C
12/01/19 09:20 EGNV 120920Z 26015KT 9999 FEW015 08/04 Q1017 W (260°) 17.3mph 8°C 4°C
12/01/19 08:50 EGNV 120850Z 26014KT 9999 FEW015 08/05 Q1018 W (260°) 16.1mph 8°C 5°C
12/01/19 08:20 EGNV 120820Z 26014KT 9999 FEW015 08/05 Q1017 W (260°) 16.1mph 8°C 5°C
12/01/19 07:50 EGNV 120750Z 26013KT 9999 FEW015 SCT030 08/05 Q1017 W (260°) 15.0mph 8°C 5°C
12/01/19 07:20 EGNV 120720Z 26011KT 9999 -RA SCT026 08/05 Q1018 -RA W (260°) 12.7mph 8°C 5°C
12/01/19 06:50 EGNV 120650Z 25008KT 9999 -RA FEW026 SCT030 08/05 Q1018 -RA WSW (250°) 9.2mph 8°C 5°C
12/01/19 06:20 EGNV 120620Z 25011KT 9999 FEW015 SCT030 08/05 Q1018 WSW (250°) 12.7mph 8°C 5°C
12/01/19 05:50 EGNV 120550Z 27009KT 9999 FEW016 08/05 Q1018 W (270°) 10.4mph 8°C 5°C
11/01/19 21:50 EGNV 112150Z 21007KT 160V240 9999 FEW023 SCT032 08/04 Q1025 SSW (210°) 8.1mph 8°C 4°C
11/01/19 21:20 EGNV 112120Z 21007KT 160V270 9999 FEW028 SCT033 07/04 Q1025 SSW (210°) 8.1mph 7°C 4°C
11/01/19 20:50 EGNV 112050Z 22007KT 9999 FEW028 SCT034 07/04 Q1026 SW (220°) 8.1mph 7°C 4°C
11/01/19 20:20 EGNV 112020Z 22006KT 9999 FEW028 SCT035 07/04 Q1026 SW (220°) 6.9mph 7°C 4°C
11/01/19 19:50 EGNV 111950Z 20007KT 9999 FEW030 BKN035 07/03 Q1026 SSW (200°) 8.1mph 7°C 3°C
11/01/19 19:20 EGNV 111920Z 23007KT 9999 FEW030 BKN035 07/04 Q1027 SW (230°) 8.1mph 7°C 4°C
11/01/19 18:50 EGNV 111850Z 23006KT 9999 BKN035 07/04 Q1027 SW (230°) 6.9mph 7°C 4°C
11/01/19 17:50 EGNV 111750Z 22006KT 9999 BKN035 07/03 Q1028 SW (220°) 6.9mph 7°C 3°C
11/01/19 17:20 EGNV 111720Z 20008KT 9999 BKN035 06/04 Q1028 SSW (200°) 9.2mph 6°C 4°C
11/01/19 16:50 EGNV 111650Z 22005KT 9999 BKN035 06/03 Q1028 SW (220°) 5.8mph 6°C 3°C
11/01/19 16:20 EGNV 111620Z 22006KT 9999 BKN035 06/03 Q1028 SW (220°) 6.9mph 6°C 3°C
11/01/19 15:50 EGNV 111550Z 22003KT 9999 FEW025 BKN036 07/03 Q1028 SW (220°) 3.5mph 7°C 3°C
11/01/19 15:20 EGNV 111520Z 22003KT 9999 FEW025 BKN033 07/03 Q1029 SW (220°) 3.5mph 7°C 3°C
11/01/19 14:50 EGNV 111450Z 27006KT 9999 FEW028 BKN035 07/03 Q1029 W (270°) 6.9mph 7°C 3°C
11/01/19 14:20 EGNV 111420Z 30006KT 9999 BKN028 07/03 Q1029 WNW (300°) 6.9mph 7°C 3°C
11/01/19 13:50 EGNV 111350Z 28007KT 260V320 9999 BKN030 07/04 Q1029 W (280°) 8.1mph 7°C 4°C
11/01/19 13:20 EGNV 111320Z 28007KT 9999 VCSH BKN032 07/03 Q1029 VCSH W (280°) 8.1mph 7°C 3°C
11/01/19 12:50 EGNV 111250Z 28007KT 9999 BKN032 08/04 Q1029 W (280°) 8.1mph 8°C 4°C
11/01/19 11:50 EGNV 111150Z 27008KT 9999 BKN034 07/04 Q1030 W (270°) 9.2mph 7°C 4°C
11/01/19 11:20 EGNV 111120Z 28007KT 9999 BKN034 07/04 Q1030 W (280°) 8.1mph 7°C 4°C
11/01/19 10:50 EGNV 111050Z 28007KT 9999 BKN034 07/04 Q1030 W (280°) 8.1mph 7°C 4°C
11/01/19 09:50 EGNV 110950Z 28007KT 9999 BKN034 07/03 Q1030 W (280°) 8.1mph 7°C 3°C
11/01/19 08:50 EGNV 110850Z 30006KT 9999 FEW030 BKN040 06/03 Q1030 WNW (300°) 6.9mph 6°C 3°C
11/01/19 08:20 EGNV 110820Z 29008KT 9999 FEW025 BKN040 05/02 Q1030 WNW (290°) 9.2mph 5°C 2°C
11/01/19 07:50 EGNV 110750Z 29007KT 9999 SCT039 05/03 Q1030 WNW (290°) 8.1mph 5°C 3°C
11/01/19 07:20 EGNV 110720Z 29007KT 9999 SCT042 05/02 Q1029 WNW (290°) 8.1mph 5°C 2°C
11/01/19 06:50 EGNV 110650Z 29007KT 9999 SCT042 03/01 Q1029 WNW (290°) 8.1mph 3°C 1°C
11/01/19 06:20 EGNV 110620Z 28007KT CAVOK 04/01 Q1029 W (280°) 8.1mph 4°C 1°C
11/01/19 05:50 EGNV 110550Z 28007KT CAVOK 04/01 Q1029 W (280°) 8.1mph 4°C 1°C
10/01/19 21:50 EGNV 102150Z 25004KT 220V290 CAVOK 07/04 Q1030 WSW (250°) 4.6mph 7°C 4°C
10/01/19 20:50 EGNV 102050Z 29007KT 9999 FEW042 07/03 Q1029 WNW (290°) 8.1mph 7°C 3°C